createdAt,value
2022-11-15T00:04:06.440Z,100780.0
2022-11-15T00:09:06.424Z,100790.0
2022-11-15T00:14:06.424Z,100780.0
2022-11-15T00:19:06.421Z,100780.0
2022-11-15T00:24:06.432Z,100780.0
2022-11-15T00:29:06.462Z,100780.0
2022-11-15T00:34:06.438Z,100770.0
2022-11-15T00:39:06.457Z,100770.0
2022-11-15T00:44:06.452Z,100770.0
2022-11-15T00:49:06.438Z,100770.0
2022-11-15T00:54:06.450Z,100770.0
2022-11-15T00:59:06.447Z,100760.0
2022-11-15T01:04:06.455Z,100750.0
2022-11-15T01:09:06.449Z,100750.0
2022-11-15T01:14:06.458Z,100750.0
2022-11-15T01:19:06.809Z,100750.0
2022-11-15T01:24:06.457Z,100740.0
2022-11-15T01:29:06.453Z,100740.0
2022-11-15T01:34:06.464Z,100730.0
2022-11-15T01:39:06.454Z,100720.0
2022-11-15T01:44:06.461Z,100720.0
2022-11-15T01:49:06.464Z,100720.0
2022-11-15T01:54:06.465Z,100720.0
2022-11-15T01:59:06.473Z,100720.0
2022-11-15T02:04:06.467Z,100720.0
2022-11-15T02:09:06.475Z,100710.0
2022-11-15T02:14:06.485Z,100710.0
2022-11-15T02:19:06.478Z,100690.0
2022-11-15T02:24:06.487Z,100690.0
2022-11-15T02:29:06.472Z,100690.0
2022-11-15T02:34:06.487Z,100680.0
2022-11-15T02:39:06.512Z,100670.0
2022-11-15T02:44:06.488Z,100680.0
2022-11-15T02:49:06.387Z,100670.0
2022-11-15T02:54:06.384Z,100680.0
2022-11-15T02:59:06.387Z,100670.0
2022-11-15T03:04:06.390Z,100670.0
2022-11-15T03:09:06.389Z,100660.0
2022-11-15T03:14:06.396Z,100660.0
2022-11-15T03:19:06.395Z,100650.0
2022-11-15T03:24:06.401Z,100660.0
2022-11-15T03:29:06.401Z,100640.0
2022-11-15T03:34:06.396Z,100650.0
2022-11-15T03:39:06.413Z,100650.0
2022-11-15T03:44:06.403Z,100650.0
2022-11-15T03:49:06.407Z,100660.0
2022-11-15T03:54:06.404Z,100660.0
2022-11-15T03:59:06.445Z,100650.0
2022-11-15T04:04:06.419Z,100650.0
2022-11-15T04:09:06.422Z,100650.0
2022-11-15T04:14:06.414Z,100660.0
2022-11-15T04:19:06.419Z,100660.0
2022-11-15T04:24:06.427Z,100650.0
2022-11-15T04:29:06.427Z,100650.0
2022-11-15T04:34:06.422Z,100650.0
2022-11-15T04:39:06.430Z,100660.0
2022-11-15T04:44:06.432Z,100650.0
2022-11-15T04:49:06.433Z,100650.0
2022-11-15T04:54:06.427Z,100650.0
2022-11-15T04:59:06.439Z,100640.0
2022-11-15T05:04:06.434Z,100640.0
2022-11-15T05:09:06.440Z,100640.0
2022-11-15T05:14:06.443Z,100640.0
2022-11-15T05:19:06.443Z,100650.0
2022-11-15T05:24:06.448Z,100640.0
2022-11-15T05:29:06.444Z,100650.0
2022-11-15T05:34:06.445Z,100650.0
2022-11-15T05:39:07.852Z,100640.0
2022-11-15T05:44:06.441Z,100630.0
2022-11-15T05:49:06.442Z,100640.0
2022-11-15T05:54:06.452Z,100640.0
2022-11-15T05:59:06.454Z,100630.0
2022-11-15T06:04:06.458Z,100640.0
2022-11-15T06:09:06.458Z,100650.0
2022-11-15T06:14:06.459Z,100650.0
2022-11-15T06:19:06.463Z,100650.0
2022-11-15T06:24:06.460Z,100640.0
2022-11-15T06:29:06.463Z,100650.0
2022-11-15T06:34:06.461Z,100640.0
2022-11-15T06:39:06.478Z,100650.0
2022-11-15T06:44:06.477Z,100660.0
2022-11-15T06:49:09.609Z,100660.0
2022-11-15T06:54:06.473Z,100670.0
2022-11-15T06:59:06.479Z,100680.0
2022-11-15T07:04:06.489Z,100680.0
2022-11-15T07:09:06.485Z,100690.0
2022-11-15T07:14:06.491Z,100680.0
2022-11-15T07:19:06.499Z,100690.0
2022-11-15T07:24:06.488Z,100690.0
2022-11-15T07:29:06.489Z,100690.0
2022-11-15T07:34:06.488Z,100690.0
2022-11-15T07:39:06.510Z,100700.0
2022-11-15T07:44:06.499Z,100700.0
2022-11-15T07:49:06.496Z,100700.0
2022-11-15T07:54:06.498Z,100700.0
2022-11-15T07:59:06.519Z,100690.0
2022-11-15T08:04:06.498Z,100690.0
2022-11-15T08:09:06.503Z,100690.0
2022-11-15T08:14:06.505Z,100690.0
2022-11-15T08:19:06.513Z,100700.0
2022-11-15T08:24:06.509Z,100690.0
2022-11-15T08:29:06.513Z,100700.0
2022-11-15T08:34:06.510Z,100700.0
2022-11-15T08:39:06.576Z,100690.0
2022-11-15T08:44:06.513Z,100700.0
2022-11-15T08:49:06.515Z,100700.0
2022-11-15T08:54:06.535Z,100690.0
2022-11-15T08:59:06.523Z,100680.0
2022-11-15T09:04:06.536Z,100680.0
2022-11-15T09:09:06.523Z,100670.0
2022-11-15T09:14:06.521Z,100670.0
2022-11-15T09:19:11.707Z,100680.0
2022-11-15T09:24:06.529Z,100660.0
2022-11-15T09:29:06.529Z,100660.0
2022-11-15T09:34:06.532Z,100660.0
2022-11-15T09:39:06.530Z,100650.0
2022-11-15T09:44:06.533Z,100640.0
2022-11-15T09:49:06.543Z,100640.0
2022-11-15T09:54:46.148Z,100640.0
2022-11-15T09:59:06.541Z,100630.0
2022-11-15T10:04:10.623Z,100630.0
2022-11-15T10:09:06.549Z,100620.0
2022-11-15T10:14:06.554Z,100630.0
2022-11-15T10:19:06.575Z,100630.0
2022-11-15T10:24:06.557Z,100620.0
2022-11-15T10:29:06.562Z,100620.0
2022-11-15T10:34:06.557Z,100600.0
2022-11-15T10:39:06.565Z,100590.0
2022-11-15T10:44:06.561Z,100600.0
2022-11-15T10:49:06.564Z,100590.0
2022-11-15T10:54:10.629Z,100580.0
2022-11-15T10:59:06.573Z,100570.0
2022-11-15T11:04:06.571Z,100560.0
2022-11-15T11:09:06.575Z,100560.0
2022-11-15T11:14:06.573Z,100570.0
2022-11-15T11:19:06.571Z,100560.0
2022-11-15T11:24:06.587Z,100550.0
2022-11-15T11:29:06.577Z,100540.0
2022-11-15T11:34:06.590Z,100550.0
2022-11-15T11:39:06.579Z,100530.0
2022-11-15T11:44:06.591Z,100530.0
2022-11-15T11:49:06.588Z,100520.0
2022-11-15T11:54:06.591Z,100500.0
2022-11-15T11:59:06.591Z,100490.0
2022-11-15T12:04:06.595Z,100480.0
2022-11-15T12:09:06.596Z,100470.0
2022-11-15T12:14:06.599Z,100470.0
2022-11-15T12:19:06.599Z,100460.0
2022-11-15T12:24:06.612Z,100440.0
2022-11-15T12:29:08.515Z,100430.0
2022-11-15T12:34:07.595Z,100420.0
2022-11-15T12:39:06.602Z,100410.0
2022-11-15T12:44:06.610Z,100410.0
2022-11-15T12:49:06.616Z,100400.0
2022-11-15T12:54:06.612Z,100390.0
2022-11-15T12:59:06.626Z,100380.0
2022-11-15T13:04:06.621Z,100370.0
2022-11-15T13:09:06.615Z,100360.0
2022-11-15T13:14:06.614Z,100360.0
2022-11-15T13:19:06.620Z,100350.0
2022-11-15T13:24:06.627Z,100340.0
2022-11-15T13:29:06.625Z,100340.0
2022-11-15T13:34:17.926Z,100330.0
2022-11-15T13:39:06.638Z,100320.0
2022-11-15T13:44:06.637Z,100310.0
2022-11-15T13:49:06.628Z,100300.0
2022-11-15T13:54:06.664Z,100300.0
2022-11-15T13:59:06.641Z,100300.0
2022-11-15T14:04:06.655Z,100280.0
2022-11-15T14:09:06.725Z,100270.0
2022-11-15T14:14:06.635Z,100270.0
2022-11-15T14:19:06.644Z,100260.0
2022-11-15T14:24:06.645Z,100260.0
2022-11-15T14:29:06.647Z,100250.0
2022-11-15T14:34:06.655Z,100240.0
2022-11-15T14:39:06.660Z,100230.0
2022-11-15T14:44:06.656Z,100220.0
2022-11-15T14:49:06.653Z,100210.0
2022-11-15T14:54:06.659Z,100210.0
2022-11-15T14:59:06.655Z,100190.0
2022-11-15T15:04:06.657Z,100180.0
2022-11-15T15:09:06.660Z,100180.0
2022-11-15T15:14:06.655Z,100170.0
2022-11-15T17:41:22.990Z,100070.0
2022-11-15T17:46:22.910Z,100060.0
2022-11-15T17:51:22.921Z,100060.0
2022-11-15T17:56:22.934Z,100070.0
2022-11-15T18:01:23.054Z,100060.0
2022-11-15T18:06:22.934Z,100050.0
2022-11-15T18:11:22.943Z,100040.0
2022-11-15T18:16:22.946Z,100040.0
2022-11-15T18:21:22.943Z,100030.0
2022-11-15T18:26:26.749Z,100030.0
2022-11-15T18:31:22.955Z,100030.0
2022-11-15T18:36:22.954Z,100020.0
2022-11-15T18:41:22.953Z,100020.0
2022-11-15T18:46:22.956Z,100010.0
2022-11-15T18:51:22.959Z,100020.0
2022-11-15T18:56:22.958Z,100000.0
2022-11-15T19:01:23.054Z,100000.0
2022-11-15T19:06:22.977Z,100010.0
2022-11-15T19:11:22.966Z,100000.0
2022-11-15T19:16:22.970Z,100000.0
2022-11-15T19:21:22.973Z,99990.0
2022-11-15T19:26:23.065Z,99990.0
2022-11-15T19:31:23.029Z,99990.0
2022-11-15T19:36:22.986Z,99990.0
2022-11-15T19:41:22.988Z,99980.0
2022-11-15T19:46:22.991Z,99980.0
2022-11-15T19:51:22.982Z,99990.0
2022-11-15T19:56:22.991Z,99980.0
2022-11-15T20:01:23.104Z,99980.0
2022-11-15T20:06:22.997Z,99970.0
2022-11-15T20:11:23.002Z,99980.0
2022-11-15T20:16:23.008Z,99960.0
2022-11-15T20:21:23.000Z,99960.0
2022-11-15T20:26:22.999Z,99950.0
2022-11-15T20:31:23.007Z,99950.0
2022-11-15T20:36:23.001Z,99960.0
2022-11-15T20:41:23.010Z,99950.0
2022-11-15T20:46:23.009Z,99940.0
2022-11-15T20:51:23.023Z,99950.0
2022-11-15T20:56:23.013Z,99930.0
2022-11-15T21:01:23.371Z,99930.0
2022-11-15T21:06:23.015Z,99930.0
2022-11-15T21:11:23.019Z,99910.0
2022-11-15T21:16:23.030Z,99910.0
2022-11-15T21:21:23.029Z,99910.0
2022-11-15T21:26:23.036Z,99910.0
2022-11-15T21:31:23.031Z,99900.0
2022-11-15T21:36:23.028Z,99890.0
2022-11-15T21:41:23.026Z,99890.0
2022-11-15T21:46:23.031Z,99890.0
2022-11-15T21:51:23.038Z,99890.0
2022-11-15T21:56:23.042Z,99870.0
2022-11-15T22:01:23.157Z,99870.0
2022-11-15T22:06:23.044Z,99870.0
2022-11-15T22:11:23.047Z,99860.0
2022-11-15T22:16:23.047Z,99860.0
2022-11-15T22:21:23.054Z,99850.0
2022-11-15T22:26:23.830Z,99840.0
2022-11-15T22:31:23.051Z,99830.0
2022-11-15T22:36:24.478Z,99840.0
2022-11-15T22:41:23.055Z,99830.0
2022-11-15T22:46:23.123Z,99830.0
2022-11-15T22:51:23.055Z,99820.0
2022-11-15T22:56:23.065Z,99820.0
2022-11-15T23:01:23.076Z,99820.0
2022-11-15T23:06:23.072Z,99810.0
2022-11-15T23:11:23.069Z,99810.0
2022-11-15T23:16:23.265Z,99810.0
2022-11-15T23:21:23.087Z,99800.0
2022-11-15T23:26:23.077Z,99800.0
2022-11-15T23:31:23.073Z,99800.0
2022-11-15T23:36:23.082Z,99800.0
2022-11-15T23:41:23.087Z,99800.0
2022-11-15T23:46:23.085Z,99790.0
2022-11-15T23:51:23.091Z,99790.0
2022-11-15T23:56:23.110Z,99780.0
